Allin, Illinois
Current Conditions -  °F | °C
As of 8:56 PM on Saturday 20 Dec 2014 (Local Time) from KBMI Reporting Station
Overcast Overcast  
Wind Chill: 24°   Ceiling: 3200
Heat Index: 32°   Visibility: 9mi
Dew Point: 29°   Wind: 10mph
Humidity: 89%   Direction: 170°S
Pressure: 30.25"   Gusts: NA
Location:  40.4427°N, 89.2086°W
Report Text: KBMI 210256Z 17009KT 9SM OVC032 00/M02 A3025 RMK AO2 57002 T00001016 SLP262
Loading
Personal Weather Stations






























Interactive Weather Map New forecast layout! Learn more

10-Day Weather Forecast

Advertisements
Track Severe Weather on mobile